FAOB

Overberg Airport

Overberg, South Africa
METAR FAOB 190300Z AUTO 21007KT //// // ////// 22/21 Q1013
Observed Flight Rules
Jan-19 @ 03:00 UTC (45 minutes ago)
Wind
210° at 7 knots
Temperatures Readings
Current 22°C / 72°F
Dewpoint 21°C / 70°F
Humidity 94%
Altimeter 29.91" Hg
Pressure 1013 hPa
Elevation 75
METAR FAOB 190300Z AUTO 21007KT //// // ////// 22/21 Q1013
Observed Flight Rules
Jan-19 @ 03:00 UTC
(45 minutes ago)
Wind
210° at 7 knots
Temperature Dewpoint
22°C / 72°F 21°C / 70°F
Humidity Altimeter Pressure
94% 29.91" Hg 1013 hPa